Time;durP1;ratioP1;P1;durP2;ratioP2;P2;SDS_P1;SDS_P2;PMS_P1;PMS_P2;Temp;Humidity;BMP_temperature;BMP_pressure;BME280_temperature;BME280_humidity;BME280_pressure;Samples;Min_cycle;Max_cycle;Signal;HPM_P1;HPM_P2
2023/03/24 00:00:12;;;;;;;0.50;0.50;;;14.20;81.90;;;;;;5033754;28;20120;-66
2023/03/24 00:02:40;;;;;;;3.72;0.93;;;14.30;81.90;;;;;;5025813;28;20491;-65
2023/03/24 00:05:10;;;;;;;1.25;0.90;;;14.30;82.40;;;;;;5033673;28;20029;-66
2023/03/24 00:07:37;;;;;;;3.47;0.93;;;14.30;81.60;;;;;;5024708;28;20033;-65
2023/03/24 00:10:08;;;;;;;3.80;1.20;;;14.30;81.70;;;;;;5033337;28;20171;-66
2023/03/24 00:12:41;;;;;;;1.33;0.68;;;14.30;81.90;;;;;;5031825;28;20017;-66
2023/03/24 00:15:10;;;;;;;2.72;0.80;;;14.20;82.10;;;;;;5022705;28;20033;-65
2023/03/24 00:17:35;;;;;;;1.35;1.08;;;14.20;82.30;;;;;;5022191;28;20025;-65
2023/03/24 00:20:06;;;;;;;1.83;0.95;;;14.20;82.60;;;;;;5026106;28;20083;-66
2023/03/24 00:22:33;;;;;;;2.63;1.42;;;14.20;82.70;;;;;;5025761;28;20029;-65
2023/03/24 00:24:59;;;;;;;2.70;1.10;;;14.10;82.80;;;;;;5030123;28;20438;-65
2023/03/24 00:27:24;;;;;;;2.33;0.90;;;14.10;83.00;;;;;;5037069;28;20065;-65
2023/03/24 00:29:50;;;;;;;0.82;0.43;;;14.10;83.00;;;;;;5030185;28;20678;-64
2023/03/24 00:32:16;;;;;;;1.55;0.75;;;14.10;83.00;;;;;;5025036;28;20078;-68
2023/03/24 00:34:42;;;;;;;1.40;1.10;;;14.10;83.10;;;;;;5020497;28;20026;-68
2023/03/24 00:37:08;;;;;;;1.17;1.08;;;14.10;83.20;;;;;;5025849;28;20029;-66
2023/03/24 00:39:34;;;;;;;1.63;1.30;;;14.10;83.30;;;;;;5030357;28;20508;-65
2023/03/24 00:42:00;;;;;;;3.03;1.38;;;14.10;83.40;;;;;;5028289;28;20026;-65
2023/03/24 00:44:26;;;;;;;2.10;1.17;;;14.10;83.60;;;;;;5030583;28;20072;-65
2023/03/24 00:46:55;;;;;;;1.75;0.95;;;14.10;83.90;;;;;;5031009;28;20098;-66
2023/03/24 00:49:41;;;;;;;3.67;0.95;;;14.10;83.70;;;;;;5019354;28;20057;-65
2023/03/24 00:52:12;;;;;;;1.67;0.98;;;14.10;83.70;;;;;;5025267;28;20038;-65
2023/03/24 00:54:38;;;;;;;2.55;0.82;;;14.20;83.60;;;;;;5033264;28;20398;-65
2023/03/24 00:57:05;;;;;;;1.00;0.80;;;14.10;83.90;;;;;;5009230;28;20503;-64
2023/03/24 00:59:31;;;;;;;1.45;0.93;;;14.10;84.00;;;;;;5024593;28;20057;-65
2023/03/24 01:01:57;;;;;;;1.08;0.70;;;14.10;84.00;;;;;;5018507;28;20068;-66
2023/03/24 01:04:26;;;;;;;1.65;0.95;;;14.10;84.20;;;;;;5025107;28;20030;-65
2023/03/24 01:06:53;;;;;;;2.05;1.58;;;14.10;84.40;;;;;;5033316;28;20086;-65
2023/03/24 01:09:22;;;;;;;2.67;1.35;;;14.10;84.60;;;;;;5015302;28;20499;-66
2023/03/24 01:11:48;;;;;;;3.20;1.25;;;14.00;84.70;;;;;;5032718;28;20034;-65
2023/03/24 01:14:14;;;;;;;0.93;0.80;;;14.10;84.70;;;;;;5028139;28;20040;-65
2023/03/24 01:16:41;;;;;;;1.83;1.00;;;14.10;84.70;;;;;;5013397;28;20048;-64
2023/03/24 01:19:10;;;;;;;1.65;1.08;;;14.10;84.70;;;;;;5027892;28;20041;-65
2023/03/24 01:21:37;;;;;;;1.52;0.90;;;14.00;84.90;;;;;;5007137;28;20036;-65
2023/03/24 01:24:04;;;;;;;1.02;0.88;;;14.00;84.90;;;;;;5007300;28;20041;-65
2023/03/24 01:26:29;;;;;;;1.05;0.68;;;14.10;84.90;;;;;;5008474;28;20029;-65
2023/03/24 01:28:55;;;;;;;1.17;1.00;;;14.10;84.60;;;;;;5029491;28;20306;-66
2023/03/24 01:31:21;;;;;;;1.33;1.17;;;14.20;84.70;;;;;;5008372;28;20373;-66
2023/03/24 01:33:47;;;;;;;1.88;1.25;;;14.20;84.80;;;;;;5026619;28;20408;-65
2023/03/24 01:36:13;;;;;;;2.30;0.88;;;14.20;84.80;;;;;;5030753;28;20040;-64
2023/03/24 01:38:38;;;;;;;2.15;1.00;;;14.20;84.80;;;;;;5011935;28;20559;-65
2023/03/24 01:41:05;;;;;;;1.25;0.60;;;14.20;84.70;;;;;;5027121;28;20112;-66
2023/03/24 01:43:33;;;;;;;2.28;0.88;;;14.30;84.50;;;;;;5023465;28;20037;-65
2023/03/24 01:46:13;;;;;;;1.83;0.88;;;14.30;84.50;;;;;;5007352;28;20499;-66
2023/03/24 01:48:48;;;;;;;1.17;0.80;;;14.30;84.50;;;;;;5029813;28;20543;-65
2023/03/24 01:51:20;;;;;;;1.30;0.85;;;14.20;84.70;;;;;;5025921;28;20487;-65
2023/03/24 01:54:13;;;;;;;1.02;0.90;;;14.30;84.70;;;;;;5028378;28;20021;-65
2023/03/24 01:56:44;;;;;;;1.45;1.00;;;14.30;85.00;;;;;;5022996;28;20365;-64
2023/03/24 01:59:13;;;;;;;1.92;1.30;;;14.20;85.20;;;;;;5027986;28;20480;-65
2023/03/24 02:01:39;;;;;;;1.40;1.00;;;14.20;85.30;;;;;;5020976;28;20022;-65
2023/03/24 02:04:06;;;;;;;1.05;0.95;;;14.20;85.20;;;;;;5028045;28;20056;-65
2023/03/24 02:06:35;;;;;;;1.48;0.90;;;14.30;85.10;;;;;;5032553;28;20191;-65
2023/03/24 02:09:02;;;;;;;1.05;0.82;;;14.30;85.10;;;;;;5007050;28;20022;-65
2023/03/24 02:11:30;;;;;;;1.00;0.70;;;14.30;85.30;;;;;;4997767;28;20029;-64
2023/03/24 02:13:56;;;;;;;0.63;0.63;;;14.30;85.20;;;;;;5015700;28;20017;-64
2023/03/24 02:16:22;;;;;;;1.25;0.80;;;14.30;85.20;;;;;;5036101;28;20040;-65
2023/03/24 02:18:53;;;;;;;1.20;1.08;;;14.30;85.20;;;;;;5024049;28;20032;-65
2023/03/24 02:21:46;;;;;;;1.20;1.00;;;14.30;85.40;;;;;;5031413;28;20397;-65
2023/03/24 02:24:44;;;;;;;1.38;0.95;;;14.30;85.60;;;;;;5037698;28;20310;-66
2023/03/24 02:27:29;;;;;;;2.47;0.85;;;14.20;85.50;;;;;;4983036;28;20037;-66
2023/03/24 02:30:13;;;;;;;0.65;0.60;;;14.30;85.80;;;;;;5029837;28;20025;-65
2023/03/24 02:33:03;;;;;;;1.42;0.95;;;14.30;85.90;;;;;;5032082;28;20032;-65
2023/03/24 02:36:06;;;;;;;2.00;0.80;;;14.30;86.00;;;;;;5030502;28;20529;-66
2023/03/24 02:38:53;;;;;;;0.70;0.70;;;14.20;86.10;;;;;;5030489;28;20065;-65
2023/03/24 02:41:30;;;;;;;1.08;0.73;;;14.20;86.30;;;;;;5031229;28;20040;-65
2023/03/24 02:44:03;;;;;;;0.88;0.70;;;14.20;86.40;;;;;;5033948;28;20090;-65
2023/03/24 02:46:35;;;;;;;1.05;0.88;;;14.20;86.60;;;;;;5033201;28;20326;-65
2023/03/24 02:49:29;;;;;;;2.28;0.90;;;14.20;86.50;;;;;;5042395;28;20041;-65
2023/03/24 02:52:15;;;;;;;3.03;0.90;;;14.20;86.80;;;;;;5036926;28;20468;-66
2023/03/24 02:55:00;;;;;;;2.80;1.10;;;14.20;86.70;;;;;;5037580;28;20034;-65
2023/03/24 02:57:54;;;;;;;1.20;1.05;;;14.20;86.80;;;;;;5032841;28;20037;-65
2023/03/24 03:00:45;;;;;;;2.28;0.90;;;14.20;86.80;;;;;;5023729;28;20037;-66
2023/03/24 03:03:18;;;;;;;1.42;0.73;;;14.20;87.00;;;;;;5035510;28;20373;-64
2023/03/24 03:05:46;;;;;;;;;;;14.20;87.00;;;;;;5012894;28;20028;-65
2023/03/24 03:08:16;;;;;;;1.20;0.80;;;14.20;87.30;;;;;;5027057;28;20343;-66
2023/03/24 03:10:45;;;;;;;2.55;1.65;;;14.10;87.10;;;;;;5040991;28;20013;-65
2023/03/24 03:13:29;;;;;;;1.08;0.98;;;14.20;87.20;;;;;;5033199;28;20392;-65
2023/03/24 03:16:00;;;;;;;7.60;0.95;;;14.20;87.10;;;;;;5049557;28;20029;-65
2023/03/24 03:18:50;;;;;;;1.45;1.10;;;14.20;87.20;;;;;;5021710;28;20021;-64
2023/03/24 03:21:20;;;;;;;1.05;0.90;;;14.30;87.20;;;;;;5024074;28;20138;-65
2023/03/24 03:24:09;;;;;;;1.75;0.65;;;14.20;87.30;;;;;;5032299;28;20522;-66
2023/03/24 03:26:36;;;;;;;0.55;0.55;;;14.20;86.20;;;;;;5024002;28;20049;-65
2023/03/24 03:29:15;;;;;;;1.08;0.55;;;14.10;85.10;;;;;;5024929;28;20036;-65
2023/03/24 03:31:51;;;;;;;0.50;0.30;;;14.00;84.20;;;;;;5012282;28;20035;-66
2023/03/24 03:34:27;;;;;;;1.20;0.63;;;13.90;83.60;;;;;;5031412;28;20033;-64
2023/03/24 03:37:13;;;;;;;0.77;0.55;;;13.90;83.50;;;;;;5032093;28;20108;-64
2023/03/24 03:40:07;;;;;;;0.77;0.50;;;13.80;83.00;;;;;;5030988;28;20087;-64
2023/03/24 03:42:34;;;;;;;0.52;0.47;;;13.80;83.20;;;;;;5031934;28;20535;-66
2023/03/24 03:45:00;;;;;;;0.65;0.65;;;13.70;82.90;;;;;;5027441;28;20449;-65
2023/03/24 03:47:26;;;;;;;2.13;0.90;;;13.60;82.90;;;;;;5025429;28;20056;-64
2023/03/24 03:49:51;;;;;;;1.00;0.63;;;13.60;82.90;;;;;;5032865;28;20049;-65
2023/03/24 03:52:18;;;;;;;0.30;0.30;;;13.60;82.40;;;;;;5013993;28;20033;-65
2023/03/24 03:54:44;;;;;;;1.50;0.73;;;13.50;82.30;;;;;;5026343;28;20365;-65
2023/03/24 03:57:12;;;;;;;0.82;0.60;;;13.50;82.30;;;;;;5014106;28;20044;-64
2023/03/24 03:59:39;;;;;;;1.25;0.50;;;13.40;82.40;;;;;;5032410;28;20108;-64
2023/03/24 04:02:10;;;;;;;1.27;0.45;;;13.30;82.30;;;;;;5029137;28;20040;-65
2023/03/24 04:05:06;;;;;;;1.13;0.68;;;13.30;82.30;;;;;;5027466;28;20038;-65
2023/03/24 04:07:35;;;;;;;0.75;0.55;;;13.20;81.60;;;;;;5029618;28;20500;-65
2023/03/24 04:10:25;;;;;;;1.17;0.70;;;13.20;81.10;;;;;;5027022;28;20454;-65
2023/03/24 04:12:56;;;;;;;1.15;0.77;;;13.10;80.80;;;;;;5026228;28;20543;-65
2023/03/24 04:15:33;;;;;;;0.38;0.38;;;13.00;80.40;;;;;;5034712;28;20021;-65
2023/03/24 04:18:27;;;;;;;1.33;0.90;;;13.00;80.70;;;;;;5029185;28;20428;-65
2023/03/24 04:20:53;;;;;;;3.03;0.47;;;12.90;80.70;;;;;;5025694;28;20033;-65
2023/03/24 04:23:53;;;;;;;0.60;0.60;;;12.90;80.70;;;;;;5015259;28;20040;-66
2023/03/24 04:26:33;;;;;;;2.85;0.80;;;12.90;80.30;;;;;;5035184;28;20024;-66
2023/03/24 04:29:19;;;;;;;1.75;0.40;;;12.90;80.70;;;;;;5024699;28;20037;-66
2023/03/24 04:31:53;;;;;;;3.55;0.50;;;12.90;80.70;;;;;;5034595;28;20017;-67
2023/03/24 04:34:20;;;;;;;0.70;0.60;;;12.90;81.50;;;;;;5029991;28;20032;-65
2023/03/24 04:36:49;;;;;;;1.55;0.50;;;12.90;80.90;;;;;;5014337;28;20550;-65
2023/03/24 04:39:24;;;;;;;1.20;0.95;;;12.90;81.00;;;;;;5034393;28;20472;-66
2023/03/24 04:41:51;;;;;;;10.30;0.82;;;12.90;80.90;;;;;;5008423;28;20085;-64
2023/03/24 04:44:20;;;;;;;1.40;0.80;;;12.90;80.70;;;;;;5025276;28;20527;-64
2023/03/24 04:46:50;;;;;;;2.38;0.90;;;12.90;80.70;;;;;;5025672;28;20037;-66
2023/03/24 04:49:18;;;;;;;3.78;1.40;;;12.80;80.50;;;;;;5032479;28;20040;-64
2023/03/24 04:51:44;;;;;;;1.92;1.17;;;12.80;80.70;;;;;;5025792;28;20437;-65
2023/03/24 04:54:10;;;;;;;1.70;0.90;;;12.70;80.80;;;;;;5016858;28;20049;-66
2023/03/24 04:56:41;;;;;;;3.90;1.23;;;12.70;80.70;;;;;;5021944;28;20313;-65
2023/03/24 04:59:07;;;;;;;4.03;1.25;;;12.60;80.50;;;;;;5033628;28;20043;-66
2023/03/24 05:01:36;;;;;;;3.95;0.93;;;12.60;80.60;;;;;;5027140;28;20038;-65
2023/03/24 05:04:03;;;;;;;3.13;1.60;;;12.60;80.70;;;;;;5021604;28;20481;-66
2023/03/24 05:06:29;;;;;;;4.38;1.42;;;12.50;80.50;;;;;;5029657;28;20075;-66
2023/03/24 05:08:58;;;;;;;4.28;1.15;;;12.50;80.20;;;;;;5029653;28;20488;-66
2023/03/24 05:11:26;;;;;;;9.48;1.95;;;12.50;80.40;;;;;;5031368;28;20449;-68
2023/03/24 05:13:53;;;;;;;5.50;1.63;;;12.50;80.10;;;;;;5026839;28;20353;-66
2023/03/24 05:16:19;;;;;;;5.72;1.92;;;12.50;80.10;;;;;;5027261;28;20122;-66
2023/03/24 05:18:45;;;;;;;8.63;1.48;;;12.50;80.00;;;;;;5031157;28;20167;-66
2023/03/24 05:21:11;;;;;;;5.00;1.63;;;12.50;80.10;;;;;;5024452;28;20138;-66
2023/03/24 05:23:36;;;;;;;4.75;1.70;;;12.50;80.00;;;;;;5030078;28;20041;-66
2023/03/24 05:26:03;;;;;;;3.30;0.75;;;12.40;79.80;;;;;;5028763;28;20029;-66
2023/03/24 05:28:29;;;;;;;1.75;0.82;;;12.40;79.90;;;;;;5030770;28;20106;-65
2023/03/24 05:30:55;;;;;;;3.92;1.27;;;12.40;79.70;;;;;;5029087;28;20033;-66
2023/03/24 05:33:21;;;;;;;5.43;1.77;;;12.30;79.70;;;;;;5039546;28;20021;-65
2023/03/24 05:35:47;;;;;;;5.32;1.90;;;12.30;79.70;;;;;;5040407;28;20480;-66
2023/03/24 05:38:13;;;;;;;1.92;1.35;;;12.30;79.70;;;;;;5042665;28;20037;-67
2023/03/24 05:40:40;;;;;;;4.45;2.13;;;12.30;79.70;;;;;;5033834;28;20396;-67
2023/03/24 05:43:07;;;;;;;5.40;1.60;;;12.20;79.60;;;;;;5019023;28;20041;-66
2023/03/24 05:45:33;;;;;;;3.78;1.67;;;12.20;79.70;;;;;;5027736;28;20046;-65
2023/03/24 05:47:59;;;;;;;4.35;1.23;;;12.20;79.70;;;;;;5031576;28;20032;-64
2023/03/24 05:50:24;;;;;;;5.03;1.13;;;12.20;79.70;;;;;;5033213;28;20025;-66
2023/03/24 05:52:51;;;;;;;5.85;1.55;;;12.20;79.80;;;;;;5034498;28;20104;-64
2023/03/24 05:55:18;;;;;;;9.60;1.75;;;12.20;79.60;;;;;;5033191;28;20608;-66
2023/03/24 05:57:44;;;;;;;6.28;1.55;;;12.20;79.60;;;;;;5033889;28;20029;-66
2023/03/24 06:00:15;;;;;;;2.90;1.45;;;12.30;79.70;;;;;;5032859;28;20118;-65
2023/03/24 06:02:42;;;;;;;3.53;1.23;;;12.20;79.60;;;;;;5026629;28;20939;-65
2023/03/24 06:05:08;;;;;;;6.13;1.38;;;12.30;79.60;;;;;;5034309;28;20025;-66
2023/03/24 06:07:35;;;;;;;2.40;0.80;;;12.30;79.60;;;;;;5033720;28;20026;-65
2023/03/24 06:10:03;;;;;;;4.60;1.92;;;12.30;79.50;;;;;;5017952;28;20048;-66
2023/03/24 06:12:29;;;;;;;3.58;1.15;;;12.40;79.50;;;;;;5034962;28;20018;-64
2023/03/24 06:14:56;;;;;;;2.63;1.52;;;12.40;79.20;;;;;;5038472;28;20393;-64
2023/03/24 06:17:23;;;;;;;4.63;1.50;;;12.40;79.10;;;;;;5031336;28;20034;-66
2023/03/24 06:19:49;;;;;;;3.15;1.60;;;12.40;79.20;;;;;;5021742;28;20052;-65
2023/03/24 06:22:16;;;;;;;4.95;1.40;;;12.40;79.20;;;;;;5013975;28;20036;-64
2023/03/24 06:24:42;;;;;;;2.53;1.40;;;12.40;79.10;;;;;;5036041;28;20025;-65
2023/03/24 06:27:09;;;;;;;3.78;1.55;;;12.40;79.00;;;;;;5033094;28;20079;-66
2023/03/24 06:29:35;;;;;;;1.38;1.00;;;12.50;78.90;;;;;;5037531;28;20116;-67
2023/03/24 06:32:02;;;;;;;2.75;1.65;;;12.50;78.70;;;;;;5035469;28;20025;-67
2023/03/24 06:34:28;;;;;;;1.65;0.80;;;12.50;78.60;;;;;;5039262;28;20021;-66
2023/03/24 06:36:54;;;;;;;12.55;2.17;;;12.50;78.60;;;;;;5020396;28;20032;-67
2023/03/24 06:39:20;;;;;;;7.22;1.33;;;12.50;78.60;;;;;;5034830;28;20048;-66
2023/03/24 06:41:46;;;;;;;3.05;1.42;;;12.40;78.50;;;;;;5017077;28;20040;-66
2023/03/24 06:44:12;;;;;;;6.82;2.42;;;12.40;78.50;;;;;;5036312;28;20403;-66
2023/03/24 06:46:39;;;;;;;6.28;1.38;;;12.40;78.30;;;;;;5038169;28;20022;-66
2023/03/24 06:49:05;;;;;;;5.60;1.70;;;12.40;78.30;;;;;;5032784;28;20033;-66
2023/03/24 06:51:30;;;;;;;3.58;1.50;;;12.40;78.40;;;;;;5033265;28;20026;-66
2023/03/24 06:53:56;;;;;;;4.80;1.52;;;12.40;78.30;;;;;;5032417;28;20045;-66
2023/03/24 06:56:22;;;;;;;3.65;1.63;;;12.40;78.00;;;;;;5034457;28;20420;-66
2023/03/24 06:58:48;;;;;;;4.38;1.10;;;12.40;78.00;;;;;;5032630;28;20041;-65
2023/03/24 07:01:14;;;;;;;4.55;1.50;;;12.40;78.00;;;;;;5033469;28;20456;-66
2023/03/24 07:03:43;;;;;;;4.43;1.25;;;12.50;78.00;;;;;;5044675;28;20037;-65
2023/03/24 07:06:09;;;;;;;2.47;1.55;;;12.50;77.80;;;;;;5027683;28;20113;-64
2023/03/24 07:08:36;;;;;;;3.63;1.48;;;12.50;77.70;;;;;;5012807;28;20125;-64
2023/03/24 07:11:02;;;;;;;1.92;0.93;;;12.50;77.60;;;;;;5033735;28;20547;-64
2023/03/24 07:13:28;;;;;;;5.20;1.38;;;12.50;77.60;;;;;;5035362;28;20431;-64
2023/03/24 07:15:54;;;;;;;2.33;1.02;;;12.60;77.50;;;;;;5008270;28;20037;-65
2023/03/24 07:18:20;;;;;;;2.47;1.63;;;12.60;77.30;;;;;;5017356;28;20065;-65
2023/03/24 07:20:46;;;;;;;3.70;1.52;;;12.60;77.10;;;;;;5026544;28;20045;-65
2023/03/24 07:23:13;;;;;;;7.65;1.52;;;12.70;76.90;;;;;;5021187;28;20563;-64
2023/03/24 07:25:42;;;;;;;4.70;1.38;;;12.70;76.30;;;;;;5031313;28;20777;-66
2023/03/24 07:28:07;;;;;;;9.75;1.88;;;12.70;76.40;;;;;;5019038;28;20029;-66
2023/03/24 07:30:37;;;;;;;9.55;1.50;;;12.80;76.50;;;;;;5030051;28;20030;-65
2023/03/24 07:33:05;;;;;;;6.85;1.70;;;12.80;76.30;;;;;;5009280;28;20132;-64
2023/03/24 07:35:30;;;;;;;3.80;1.20;;;12.80;75.90;;;;;;5030942;28;20022;-65
2023/03/24 07:38:00;;;;;;;6.07;1.65;;;12.90;75.90;;;;;;5031646;28;20078;-64
2023/03/24 07:40:26;;;;;;;5.15;1.73;;;12.90;75.80;;;;;;5013941;28;20108;-65
2023/03/24 07:42:52;;;;;;;2.70;1.83;;;13.00;75.60;;;;;;5014065;28;20167;-64
2023/03/24 07:45:18;;;;;;;7.28;1.45;;;13.00;75.50;;;;;;4985170;28;20050;-67
2023/03/24 07:47:45;;;;;;;9.05;1.80;;;13.00;75.40;;;;;;5040016;28;20374;-65
2023/03/24 07:50:12;;;;;;;5.18;1.48;;;13.00;75.70;;;;;;5017822;28;20029;-66
2023/03/24 07:52:40;;;;;;;2.20;1.00;;;13.10;75.70;;;;;;5022140;28;20479;-66
2023/03/24 07:55:10;;;;;;;5.55;2.05;;;13.10;75.40;;;;;;5020364;28;20022;-66
2023/03/24 07:57:37;;;;;;;6.68;1.98;;;13.10;75.40;;;;;;5032318;28;20071;-66
2023/03/24 08:00:14;;;;;;;5.95;1.63;;;13.20;75.40;;;;;;5027750;28;20069;-67
2023/03/24 08:02:41;;;;;;;2.58;1.20;;;13.30;75.20;;;;;;5008744;28;20045;-68
2023/03/24 08:05:09;;;;;;;13.32;2.33;;;13.30;74.60;;;;;;5015453;28;20030;-63
2023/03/24 08:07:35;;;;;;;4.75;1.75;;;13.40;74.90;;;;;;5033279;28;20025;-65
2023/03/24 08:10:02;;;;;;;3.38;1.00;;;13.50;75.10;;;;;;5013753;28;20104;-65
2023/03/24 08:12:27;;;;;;;5.85;1.50;;;13.60;74.60;;;;;;5027585;28;20040;-65
2023/03/24 08:14:53;;;;;;;3.33;1.38;;;13.70;74.20;;;;;;5023029;28;20029;-65
2023/03/24 08:17:19;;;;;;;5.13;2.35;;;13.80;73.90;;;;;;5027790;28;20030;-68
2023/03/24 08:19:46;;;;;;;6.10;1.25;;;13.90;73.10;;;;;;5015305;28;20068;-67
2023/03/24 08:22:12;;;;;;;5.05;1.40;;;13.90;73.30;;;;;;5032659;28;20060;-66
2023/03/24 08:24:37;;;;;;;4.75;1.48;;;14.00;73.30;;;;;;5030683;28;20062;-65
2023/03/24 08:27:06;;;;;;;8.88;1.63;;;14.00;72.50;;;;;;5029489;28;20040;-65
2023/03/24 08:29:33;;;;;;;4.13;1.92;;;13.90;72.10;;;;;;5018253;28;20030;-66
2023/03/24 08:32:00;;;;;;;2.83;1.67;;;13.90;72.40;;;;;;5024384;28;20075;-65
2023/03/24 08:34:26;;;;;;;2.47;1.27;;;14.00;71.90;;;;;;5008005;28;20480;-66
2023/03/24 08:36:52;;;;;;;3.13;1.55;;;14.00;71.30;;;;;;5010719;28;20025;-67
2023/03/24 08:39:19;;;;;;;1.63;1.30;;;13.90;71.50;;;;;;5005729;28;20030;-68
2023/03/24 08:41:45;;;;;;;1.08;0.95;;;14.00;71.60;;;;;;5005891;28;20128;-67
2023/03/24 08:44:10;;;;;;;3.92;1.10;;;14.10;70.90;;;;;;5027141;28;20136;-66
2023/03/24 08:46:36;;;;;;;3.05;1.45;;;14.10;70.10;;;;;;5020975;28;20112;-68
2023/03/24 08:49:03;;;;;;;2.17;1.10;;;14.10;70.70;;;;;;5029528;28;20111;-67
2023/03/24 08:51:28;;;;;;;2.60;1.58;;;14.10;70.30;;;;;;5026823;28;20029;-65
2023/03/24 08:53:54;;;;;;;7.03;1.75;;;14.20;70.50;;;;;;5026856;28;20091;-67
2023/03/24 08:56:21;;;;;;;4.50;1.52;;;14.10;70.10;;;;;;5023712;28;20029;-66
2023/03/24 08:58:49;;;;;;;4.00;2.03;;;14.20;70.20;;;;;;5005106;28;20091;-66
2023/03/24 09:01:16;;;;;;;5.68;1.52;;;14.20;69.70;;;;;;5024403;28;20084;-67
2023/03/24 09:03:43;;;;;;;4.20;1.67;;;14.20;70.00;;;;;;5019264;28;20025;-66
2023/03/24 09:06:09;;;;;;;4.13;1.42;;;14.30;69.90;;;;;;5025391;28;20029;-66
2023/03/24 09:08:35;;;;;;;3.38;1.42;;;14.40;69.80;;;;;;5009630;28;20037;-66
2023/03/24 09:11:01;;;;;;;2.05;1.20;;;14.60;69.70;;;;;;5030330;28;20029;-66
2023/03/24 09:13:26;;;;;;;0.95;0.80;;;14.70;69.40;;;;;;5017702;28;20029;-69
2023/03/24 09:15:56;;;;;;;4.68;1.55;;;14.90;69.20;;;;;;5021841;28;20013;-67
2023/03/24 09:18:22;;;;;;;2.92;1.67;;;15.00;68.60;;;;;;5018858;28;20033;-67
2023/03/24 09:20:49;;;;;;;2.58;1.52;;;15.00;68.00;;;;;;5020194;28;20037;-66
2023/03/24 09:23:15;;;;;;;3.80;1.48;;;15.00;67.30;;;;;;5019225;28;20040;-65
2023/03/24 09:25:40;;;;;;;3.50;1.33;;;15.10;67.30;;;;;;5025356;28;20018;-65
2023/03/24 09:28:07;;;;;;;3.70;1.40;;;15.00;66.10;;;;;;5020264;28;20296;-66
2023/03/24 09:30:34;;;;;;;3.33;1.13;;;14.90;66.40;;;;;;4977334;28;20125;-67
2023/03/24 09:32:59;;;;;;;4.18;1.80;;;14.90;66.30;;;;;;5031944;28;20022;-65
2023/03/24 09:35:26;;;;;;;4.72;1.52;;;14.80;66.50;;;;;;5037036;28;20036;-67
2023/03/24 09:37:53;;;;;;;1.80;0.90;;;14.70;66.60;;;;;;5031497;28;20079;-65
2023/03/24 09:40:23;;;;;;;3.22;1.17;;;14.70;66.90;;;;;;5027991;28;20059;-65
2023/03/24 09:43:12;;;;;;;5.93;1.45;;;14.60;67.10;;;;;;5032792;28;20435;-66
2023/03/24 09:45:52;;;;;;;4.97;1.73;;;14.70;67.30;;;;;;5017797;28;20119;-66
2023/03/24 09:48:47;;;;;;;2.05;0.93;;;14.80;67.00;;;;;;5028654;28;20426;-67
2023/03/24 09:51:24;;;;;;;1.58;1.02;;;14.80;66.20;;;;;;5027435;28;20068;-68
2023/03/24 09:54:18;;;;;;;2.58;1.10;;;14.80;66.40;;;;;;5027478;28;20445;-68
2023/03/24 09:56:45;;;;;;;3.60;1.52;;;14.80;66.00;;;;;;5029930;28;20026;-66
2023/03/24 09:59:22;;;;;;;2.08;1.38;;;14.80;65.80;;;;;;5010501;28;20029;-65
2023/03/24 10:01:48;;;;;;;2.50;1.40;;;14.90;65.90;;;;;;5030715;28;20380;-66
2023/03/24 10:04:34;;;;;;;1.60;1.27;;;15.10;65.70;;;;;;5033464;28;20111;-66
2023/03/24 10:07:07;;;;;;;3.78;1.67;;;15.10;65.30;;;;;;5029716;28;20025;-67
2023/03/24 10:09:35;;;;;;;1.52;1.27;;;15.10;65.30;;;;;;5027825;28;20029;-66
2023/03/24 10:12:35;;;;;;;0.85;0.57;;;15.10;65.40;;;;;;5026174;28;20079;-65
2023/03/24 10:15:33;;;;;;;1.08;0.90;;;15.20;65.00;;;;;;5032874;28;20477;-64
2023/03/24 10:18:29;;;;;;;1.35;0.70;;;15.20;64.90;;;;;;5015084;28;20100;-67
2023/03/24 10:21:18;;;;;;;3.70;1.15;;;15.10;64.60;;;;;;5010646;28;20041;-67
2023/03/24 10:24:05;;;;;;;3.78;1.02;;;15.00;65.30;;;;;;5024834;28;20104;-68
2023/03/24 10:26:48;;;;;;;1.52;0.85;;;15.00;65.10;;;;;;5030307;28;20103;-67
2023/03/24 10:29:33;;;;;;;2.05;1.00;;;14.90;65.30;;;;;;5014511;28;20520;-67
2023/03/24 10:32:07;;;;;;;1.00;0.90;;;15.00;66.10;;;;;;5025326;28;20025;-67
2023/03/24 10:34:34;;;;;;;4.82;0.93;;;15.20;65.70;;;;;;5003529;28;20029;-68
2023/03/24 10:37:02;;;;;;;5.15;1.30;;;15.30;64.90;;;;;;5022103;28;20029;-67
2023/03/24 10:39:29;;;;;;;3.17;1.02;;;15.50;64.90;;;;;;5028670;28;20033;-66
2023/03/24 10:41:58;;;;;;;1.98;1.00;;;15.50;63.50;;;;;;5010132;28;20049;-67
2023/03/24 10:44:25;;;;;;;2.40;1.17;;;15.60;62.70;;;;;;5000347;28;20058;-68
2023/03/24 10:46:55;;;;;;;2.58;1.02;;;15.70;62.40;;;;;;5013967;28;20512;-66
2023/03/24 10:49:22;;;;;;;4.47;1.38;;;15.90;61.90;;;;;;5009788;28;20025;-67
2023/03/24 10:51:50;;;;;;;2.42;0.70;;;16.20;60.90;;;;;;4995446;28;20064;-66
2023/03/24 10:54:18;;;;;;;5.32;1.77;;;16.40;60.60;;;;;;5014207;28;20508;-66
2023/03/24 10:56:46;;;;;;;3.25;1.10;;;16.60;59.90;;;;;;5014268;28;20022;-66
2023/03/24 10:59:24;;;;;;;4.07;1.80;;;16.70;59.30;;;;;;5010164;28;20038;-67
2023/03/24 11:01:59;;;;;;;1.05;0.93;;;16.70;58.40;;;;;;5011295;28;20026;-66
2023/03/24 11:04:26;;;;;;;4.60;1.30;;;16.40;58.50;;;;;;5008152;28;20022;-66
2023/03/24 11:07:22;;;;;;;4.88;1.10;;;16.20;59.60;;;;;;5008840;28;20030;-67
2023/03/24 11:10:09;;;;;;;5.25;1.38;;;16.00;59.80;;;;;;4997250;28;20038;-68
2023/03/24 11:12:38;;;;;;;6.90;1.15;;;15.80;60.60;;;;;;5023019;28;20026;-67
2023/03/24 11:15:20;;;;;;;3.67;1.55;;;15.80;61.20;;;;;;5008402;28;20026;-67
2023/03/24 11:17:56;;;;;;;7.32;1.75;;;15.90;61.50;;;;;;5010384;28;20425;-66
2023/03/24 11:20:37;;;;;;;8.50;1.42;;;15.90;62.00;;;;;;5012025;28;20469;-67
2023/03/24 11:23:16;;;;;;;4.80;2.08;;;15.90;62.50;;;;;;5020559;28;20377;-68
2023/03/24 11:25:46;;;;;;;2.30;0.93;;;15.80;62.80;;;;;;5010086;28;20465;-67
2023/03/24 11:28:20;;;;;;;1.20;0.98;;;15.60;63.80;;;;;;5006721;28;20028;-67
2023/03/24 11:30:48;;;;;;;3.33;1.17;;;15.50;64.30;;;;;;5012572;28;20057;-67
2023/03/24 11:33:25;;;;;;;2.15;0.85;;;15.40;64.80;;;;;;5009684;28;20350;-70
2023/03/24 11:35:51;;;;;;;2.38;0.70;;;15.30;65.50;;;;;;5015150;28;20485;-70
2023/03/24 11:38:26;;;;;;;4.18;1.00;;;15.20;66.60;;;;;;5009210;28;20536;-69
2023/03/24 11:40:57;;;;;;;0.77;0.70;;;15.30;66.30;;;;;;5018143;28;20030;-69
2023/03/24 11:43:23;;;;;;;1.27;0.85;;;15.20;66.30;;;;;;5014293;28;20460;-70
2023/03/24 11:46:12;;;;;;;2.28;0.60;;;15.20;65.70;;;;;;5038806;28;20124;-66
2023/03/24 11:48:51;;;;;;;1.08;0.32;;;15.20;65.80;;;;;;5038132;28;20021;-66
2023/03/24 11:51:30;;;;;;;1.95;0.43;;;15.40;65.50;;;;;;5032174;28;20014;-65
2023/03/24 11:53:58;;;;;;;2.17;0.38;;;15.70;63.40;;;;;;5022209;28;20520;-66
2023/03/24 11:56:35;;;;;;;0.73;0.70;;;15.80;63.30;;;;;;5034678;28;20488;-67
2023/03/24 11:59:06;;;;;;;1.95;0.50;;;16.20;62.40;;;;;;5028469;28;20060;-66
2023/03/24 12:01:50;;;;;;;0.47;0.47;;;16.40;61.50;;;;;;5018381;28;20033;-65
2023/03/24 12:04:29;;;;;;;0.47;0.47;;;16.50;61.40;;;;;;5031088;28;20075;-66
2023/03/24 12:07:06;;;;;;;3.22;1.13;;;16.40;61.20;;;;;;5033015;28;20051;-65
2023/03/24 12:10:09;;;;;;;0.55;0.43;;;16.10;61.60;;;;;;5011980;28;20107;-65
2023/03/24 12:12:37;;;;;;;;;;;15.80;62.60;;;;;;5028121;28;20385;-66
2023/03/24 12:15:17;;;;;;;1.55;0.70;;;15.50;64.10;;;;;;5034371;28;19962;-67
2023/03/24 12:18:30;;;;;;;0.95;0.90;;;15.20;66.30;;;;;;5009335;28;20029;-70
2023/03/24 12:21:34;;;;;;;1.00;0.82;;;14.90;68.50;;;;;;5008962;28;20076;-69
2023/03/24 12:24:25;;;;;;;3.33;0.90;;;14.60;70.40;;;;;;5008733;28;20037;-68
2023/03/24 12:26:57;;;;;;;1.75;0.85;;;14.30;72.90;;;;;;5026740;28;20092;-67
2023/03/24 12:29:50;;;;;;;1.85;0.60;;;14.00;73.50;;;;;;5027181;28;20266;-67
2023/03/24 12:32:52;;;;;;;2.05;0.88;;;13.80;73.70;;;;;;5029439;28;20021;-66
2023/03/24 12:35:52;;;;;;;2.83;1.17;;;13.70;73.90;;;;;;5036704;28;20025;-67
2023/03/24 12:39:00;;;;;;;2.25;0.70;;;13.70;73.90;;;;;;5006195;28;20480;-67
2023/03/24 12:41:46;;;;;;;1.17;0.40;;;13.70;73.90;;;;;;5012947;28;20033;-67
2023/03/24 12:44:22;;;;;;;2.47;0.40;;;13.50;73.10;;;;;;5034830;28;20424;-69
2023/03/24 12:47:13;;;;;;;1.65;0.52;;;13.30;73.80;;;;;;5022451;28;20030;-67
2023/03/24 12:49:54;;;;;;;2.25;0.55;;;13.30;74.10;;;;;;5029669;28;20021;-66
2023/03/24 12:52:47;;;;;;;2.33;0.70;;;13.20;74.40;;;;;;5030249;28;20040;-69
2023/03/24 12:55:23;;;;;;;1.17;0.63;;;13.10;74.30;;;;;;5024113;28;20030;-67
2023/03/24 12:58:03;;;;;;;3.83;0.98;;;13.20;74.40;;;;;;5007867;28;20445;-66
2023/03/24 13:00:36;;;;;;;1.05;0.70;;;13.30;74.20;;;;;;5020776;28;20018;-67
2023/03/24 13:03:22;;;;;;;1.92;0.98;;;13.60;74.40;;;;;;5027129;28;20447;-68
2023/03/24 13:05:54;;;;;;;1.27;0.65;;;14.20;74.40;;;;;;5026072;28;20464;-69
2023/03/24 13:08:28;;;;;;;4.55;1.10;;;14.90;72.90;;;;;;5024010;28;20014;-70
2023/03/24 13:11:07;;;;;;;0.60;0.57;;;15.10;71.00;;;;;;5021546;28;20030;-69
2023/03/24 13:13:42;;;;;;;6.63;1.15;;;15.40;70.90;;;;;;5025515;28;20040;-70